sensor_id;sensor_type;location;lat;lon;timestamp;P1;durP1;ratioP1;P2;durP2;ratioP2
48042;SDS011;33988;47.992;8.820;2023-09-08T00:01:07;4.55;;;3.88;;
48042;SDS011;33988;47.992;8.820;2023-09-08T00:03:36;4.68;;;4.18;;
48042;SDS011;33988;47.992;8.820;2023-09-08T00:06:03;6.78;;;4.38;;
48042;SDS011;33988;47.992;8.820;2023-09-08T00:08:30;5.70;;;3.83;;
48042;SDS011;33988;47.992;8.820;2023-09-08T00:10:58;5.13;;;4.10;;
48042;SDS011;33988;47.992;8.820;2023-09-08T00:13:27;4.63;;;4.10;;
48042;SDS011;33988;47.992;8.820;2023-09-08T00:15:54;5.68;;;3.75;;
48042;SDS011;33988;47.992;8.820;2023-09-08T00:18:21;4.38;;;3.97;;
48042;SDS011;33988;47.992;8.820;2023-09-08T00:20:51;5.68;;;4.05;;
48042;SDS011;33988;47.992;8.820;2023-09-08T00:23:18;3.75;;;3.42;;
48042;SDS011;33988;47.992;8.820;2023-09-08T00:25:45;4.57;;;4.18;;
48042;SDS011;33988;47.992;8.820;2023-09-08T00:28:15;4.28;;;3.80;;
48042;SDS011;33988;47.992;8.820;2023-09-08T00:30:42;3.80;;;3.50;;
48042;SDS011;33988;47.992;8.820;2023-09-08T00:33:11;4.15;;;3.75;;
48042;SDS011;33988;47.992;8.820;2023-09-08T00:35:43;4.60;;;4.18;;
48042;SDS011;33988;47.992;8.820;2023-09-08T00:38:15;3.83;;;3.47;;
48042;SDS011;33988;47.992;8.820;2023-09-08T00:40:44;3.60;;;3.28;;
48042;SDS011;33988;47.992;8.820;2023-09-08T00:43:11;4.28;;;3.88;;
48042;SDS011;33988;47.992;8.820;2023-09-08T00:45:41;5.25;;;3.65;;
48042;SDS011;33988;47.992;8.820;2023-09-08T00:48:09;4.72;;;4.18;;
48042;SDS011;33988;47.992;8.820;2023-09-08T00:50:40;4.18;;;3.78;;
48042;SDS011;33988;47.992;8.820;2023-09-08T00:53:07;5.47;;;3.72;;
48042;SDS011;33988;47.992;8.820;2023-09-08T00:55:41;4.13;;;3.72;;
48042;SDS011;33988;47.992;8.820;2023-09-08T01:00:37;3.55;;;3.25;;
48042;SDS011;33988;47.992;8.820;2023-09-08T01:03:04;4.22;;;3.70;;
48042;SDS011;33988;47.992;8.820;2023-09-08T01:05:31;6.97;;;3.75;;
48042;SDS011;33988;47.992;8.820;2023-09-08T01:07:59;5.28;;;4.28;;
48042;SDS011;33988;47.992;8.820;2023-09-08T01:10:27;3.88;;;3.50;;
48042;SDS011;33988;47.992;8.820;2023-09-08T01:12:57;4.47;;;4.00;;
48042;SDS011;33988;47.992;8.820;2023-09-08T01:15:24;4.38;;;3.92;;
48042;SDS011;33988;47.992;8.820;2023-09-08T01:17:51;5.00;;;3.63;;
48042;SDS011;33988;47.992;8.820;2023-09-08T01:20:24;4.72;;;3.97;;
48042;SDS011;33988;47.992;8.820;2023-09-08T01:25:59;5.95;;;3.75;;
48042;SDS011;33988;47.992;8.820;2023-09-08T01:28:42;3.95;;;3.58;;
48042;SDS011;33988;47.992;8.820;2023-09-08T01:31:11;4.35;;;3.88;;
48042;SDS011;33988;47.992;8.820;2023-09-08T01:33:39;4.72;;;4.07;;
48042;SDS011;33988;47.992;8.820;2023-09-08T01:36:07;4.30;;;3.60;;
48042;SDS011;33988;47.992;8.820;2023-09-08T01:38:35;4.60;;;3.85;;
48042;SDS011;33988;47.992;8.820;2023-09-08T01:41:02;5.18;;;3.90;;
48042;SDS011;33988;47.992;8.820;2023-09-08T01:43:34;4.07;;;3.67;;
48042;SDS011;33988;47.992;8.820;2023-09-08T01:46:01;4.45;;;3.70;;
48042;SDS011;33988;47.992;8.820;2023-09-08T01:48:30;3.85;;;3.55;;
48042;SDS011;33988;47.992;8.820;2023-09-08T01:50:58;5.10;;;3.85;;
48042;SDS011;33988;47.992;8.820;2023-09-08T01:53:28;4.13;;;3.72;;
48042;SDS011;33988;47.992;8.820;2023-09-08T01:55:57;6.85;;;3.53;;
48042;SDS011;33988;47.992;8.820;2023-09-08T01:58:27;5.90;;;4.15;;
48042;SDS011;33988;47.992;8.820;2023-09-08T02:00:54;4.28;;;3.60;;
48042;SDS011;33988;47.992;8.820;2023-09-08T02:03:21;4.10;;;3.70;;
48042;SDS011;33988;47.992;8.820;2023-09-08T02:05:50;3.90;;;3.50;;
48042;SDS011;33988;47.992;8.820;2023-09-08T02:08:20;4.07;;;3.38;;
48042;SDS011;33988;47.992;8.820;2023-09-08T02:10:49;5.50;;;3.70;;
48042;SDS011;33988;47.992;8.820;2023-09-08T02:13:18;4.05;;;3.65;;
48042;SDS011;33988;47.992;8.820;2023-09-08T02:15:47;4.07;;;3.67;;
48042;SDS011;33988;47.992;8.820;2023-09-08T02:18:17;3.85;;;3.50;;
48042;SDS011;33988;47.992;8.820;2023-09-08T02:20:44;4.07;;;3.38;;
48042;SDS011;33988;47.992;8.820;2023-09-08T02:23:11;5.32;;;3.60;;
48042;SDS011;33988;47.992;8.820;2023-09-08T02:25:41;4.13;;;3.60;;
48042;SDS011;33988;47.992;8.820;2023-09-08T02:28:12;4.00;;;3.58;;
48042;SDS011;33988;47.992;8.820;2023-09-08T02:30:39;5.55;;;3.65;;
48042;SDS011;33988;47.992;8.820;2023-09-08T02:33:08;4.25;;;3.55;;
48042;SDS011;33988;47.992;8.820;2023-09-08T02:35:38;3.63;;;3.33;;
48042;SDS011;33988;47.992;8.820;2023-09-08T02:38:07;3.72;;;3.35;;
48042;SDS011;33988;47.992;8.820;2023-09-08T02:40:37;4.65;;;3.53;;
48042;SDS011;33988;47.992;8.820;2023-09-08T02:43:04;3.95;;;3.40;;
48042;SDS011;33988;47.992;8.820;2023-09-08T02:45:33;4.22;;;3.75;;
48042;SDS011;33988;47.992;8.820;2023-09-08T02:48:02;4.32;;;3.40;;
48042;SDS011;33988;47.992;8.820;2023-09-08T02:50:29;4.43;;;3.40;;
48042;SDS011;33988;47.992;8.820;2023-09-08T02:53:01;4.45;;;3.88;;
48042;SDS011;33988;47.992;8.820;2023-09-08T02:55:30;6.88;;;3.85;;
48042;SDS011;33988;47.992;8.820;2023-09-08T02:58:00;4.45;;;3.90;;
48042;SDS011;33988;47.992;8.820;2023-09-08T03:00:27;4.65;;;4.03;;
48042;SDS011;33988;47.992;8.820;2023-09-08T03:02:54;4.10;;;3.63;;
48042;SDS011;33988;47.992;8.820;2023-09-08T03:05:21;4.68;;;3.90;;
48042;SDS011;33988;47.992;8.820;2023-09-08T03:07:50;3.92;;;3.50;;
48042;SDS011;33988;47.992;8.820;2023-09-08T03:10:19;4.30;;;3.90;;
48042;SDS011;33988;47.992;8.820;2023-09-08T03:12:49;4.60;;;4.10;;
48042;SDS011;33988;47.992;8.820;2023-09-08T03:15:18;6.88;;;3.90;;
48042;SDS011;33988;47.992;8.820;2023-09-08T03:17:47;4.47;;;4.07;;
48042;SDS011;33988;47.992;8.820;2023-09-08T03:20:14;4.35;;;3.95;;
48042;SDS011;33988;47.992;8.820;2023-09-08T03:22:43;5.22;;;3.92;;
48042;SDS011;33988;47.992;8.820;2023-09-08T03:25:10;4.45;;;3.67;;
48042;SDS011;33988;47.992;8.820;2023-09-08T03:27:40;5.95;;;3.63;;
48042;SDS011;33988;47.992;8.820;2023-09-08T03:30:07;3.55;;;3.17;;
48042;SDS011;33988;47.992;8.820;2023-09-08T03:32:37;5.53;;;3.65;;
48042;SDS011;33988;47.992;8.820;2023-09-08T03:35:06;3.83;;;3.40;;
48042;SDS011;33988;47.992;8.820;2023-09-08T03:37:34;4.32;;;3.92;;
48042;SDS011;33988;47.992;8.820;2023-09-08T03:40:06;4.70;;;4.20;;
48042;SDS011;33988;47.992;8.820;2023-09-08T03:42:37;4.15;;;3.75;;
48042;SDS011;33988;47.992;8.820;2023-09-08T03:45:04;4.72;;;4.22;;
48042;SDS011;33988;47.992;8.820;2023-09-08T03:47:34;8.30;;;3.92;;
48042;SDS011;33988;47.992;8.820;2023-09-08T03:50:01;4.43;;;4.03;;
48042;SDS011;33988;47.992;8.820;2023-09-08T03:52:30;9.43;;;4.50;;
48042;SDS011;33988;47.992;8.820;2023-09-08T03:54:57;4.80;;;3.95;;
48042;SDS011;33988;47.992;8.820;2023-09-08T03:57:24;5.10;;;3.72;;
48042;SDS011;33988;47.992;8.820;2023-09-08T03:59:54;4.38;;;3.92;;
48042;SDS011;33988;47.992;8.820;2023-09-08T04:02:21;4.40;;;3.65;;
48042;SDS011;33988;47.992;8.820;2023-09-08T04:04:50;4.05;;;3.65;;
48042;SDS011;33988;47.992;8.820;2023-09-08T04:07:17;3.97;;;3.55;;
48042;SDS011;33988;47.992;8.820;2023-09-08T04:09:44;4.47;;;3.83;;
48042;SDS011;33988;47.992;8.820;2023-09-08T04:12:14;4.10;;;3.70;;
48042;SDS011;33988;47.992;8.820;2023-09-08T04:14:41;4.00;;;3.58;;
48042;SDS011;33988;47.992;8.820;2023-09-08T04:17:10;3.65;;;3.35;;
48042;SDS011;33988;47.992;8.820;2023-09-08T04:19:39;3.63;;;3.33;;
48042;SDS011;33988;47.992;8.820;2023-09-08T04:22:09;4.60;;;3.53;;
48042;SDS011;33988;47.992;8.820;2023-09-08T04:24:36;4.35;;;3.63;;
48042;SDS011;33988;47.992;8.820;2023-09-08T04:27:06;3.95;;;3.50;;
48042;SDS011;33988;47.992;8.820;2023-09-08T04:29:35;4.30;;;3.53;;
48042;SDS011;33988;47.992;8.820;2023-09-08T04:32:02;3.45;;;3.15;;
48042;SDS011;33988;47.992;8.820;2023-09-08T04:34:36;3.88;;;3.58;;
48042;SDS011;33988;47.992;8.820;2023-09-08T04:37:05;3.67;;;3.28;;
48042;SDS011;33988;47.992;8.820;2023-09-08T04:39:35;6.15;;;3.75;;
48042;SDS011;33988;47.992;8.820;2023-09-08T04:42:03;3.65;;;3.35;;
48042;SDS011;33988;47.992;8.820;2023-09-08T04:44:32;3.67;;;3.38;;
48042;SDS011;33988;47.992;8.820;2023-09-08T04:46:59;3.83;;;3.42;;
48042;SDS011;33988;47.992;8.820;2023-09-08T04:49:29;3.55;;;3.17;;
48042;SDS011;33988;47.992;8.820;2023-09-08T04:51:56;3.88;;;3.47;;
48042;SDS011;33988;47.992;8.820;2023-09-08T04:54:23;4.13;;;3.67;;
48042;SDS011;33988;47.992;8.820;2023-09-08T04:56:53;4.88;;;3.58;;
48042;SDS011;33988;47.992;8.820;2023-09-08T04:59:33;3.53;;;3.22;;
48042;SDS011;33988;47.992;8.820;2023-09-08T05:02:02;4.22;;;3.55;;
48042;SDS011;33988;47.992;8.820;2023-09-08T05:04:29;3.60;;;3.28;;
48042;SDS011;33988;47.992;8.820;2023-09-08T05:06:56;4.40;;;3.65;;
48042;SDS011;33988;47.992;8.820;2023-09-08T05:09:25;3.95;;;3.55;;
48042;SDS011;33988;47.992;8.820;2023-09-08T05:11:54;4.20;;;3.72;;
48042;SDS011;33988;47.992;8.820;2023-09-08T05:14:22;4.82;;;3.85;;
48042;SDS011;33988;47.992;8.820;2023-09-08T05:16:51;3.80;;;3.47;;
48042;SDS011;33988;47.992;8.820;2023-09-08T05:19:25;4.30;;;3.90;;
48042;SDS011;33988;47.992;8.820;2023-09-08T05:21:53;4.70;;;3.75;;
48042;SDS011;33988;47.992;8.820;2023-09-08T05:24:24;4.18;;;3.78;;
48042;SDS011;33988;47.992;8.820;2023-09-08T05:26:57;7.45;;;3.92;;
48042;SDS011;33988;47.992;8.820;2023-09-08T05:29:24;4.15;;;3.75;;
48042;SDS011;33988;47.992;8.820;2023-09-08T05:31:53;4.30;;;3.38;;
48042;SDS011;33988;47.992;8.820;2023-09-08T05:34:22;4.38;;;3.63;;
48042;SDS011;33988;47.992;8.820;2023-09-08T05:36:52;4.20;;;3.65;;
48042;SDS011;33988;47.992;8.820;2023-09-08T05:39:19;4.35;;;3.83;;
48042;SDS011;33988;47.992;8.820;2023-09-08T05:41:46;4.95;;;4.10;;
48042;SDS011;33988;47.992;8.820;2023-09-08T05:44:13;3.97;;;3.58;;
48042;SDS011;33988;47.992;8.820;2023-09-08T05:46:42;4.30;;;3.80;;
48042;SDS011;33988;47.992;8.820;2023-09-08T05:49:12;9.32;;;3.63;;
48042;SDS011;33988;47.992;8.820;2023-09-08T05:51:41;4.28;;;3.70;;
48042;SDS011;33988;47.992;8.820;2023-09-08T05:54:08;4.22;;;3.83;;
48042;SDS011;33988;47.992;8.820;2023-09-08T05:56:36;4.88;;;3.72;;
48042;SDS011;33988;47.992;8.820;2023-09-08T05:59:04;5.45;;;3.67;;
48042;SDS011;33988;47.992;8.820;2023-09-08T06:01:33;4.53;;;4.10;;
48042;SDS011;33988;47.992;8.820;2023-09-08T06:04:03;4.82;;;3.90;;
48042;SDS011;33988;47.992;8.820;2023-09-08T06:06:35;5.15;;;4.05;;
48042;SDS011;33988;47.992;8.820;2023-09-08T06:09:02;4.78;;;4.03;;
48042;SDS011;33988;47.992;8.820;2023-09-08T06:11:32;5.20;;;4.00;;
48042;SDS011;33988;47.992;8.820;2023-09-08T06:13:58;4.28;;;3.88;;
48042;SDS011;33988;47.992;8.820;2023-09-08T06:16:26;5.15;;;4.45;;
48042;SDS011;33988;47.992;8.820;2023-09-08T06:18:53;5.28;;;4.03;;
48042;SDS011;33988;47.992;8.820;2023-09-08T06:21:22;4.45;;;4.05;;
48042;SDS011;33988;47.992;8.820;2023-09-08T06:23:52;4.80;;;3.88;;
48042;SDS011;33988;47.992;8.820;2023-09-08T06:26:19;4.55;;;4.00;;
48042;SDS011;33988;47.992;8.820;2023-09-08T06:28:45;4.57;;;3.90;;
48042;SDS011;33988;47.992;8.820;2023-09-08T06:31:12;4.53;;;4.05;;
48042;SDS011;33988;47.992;8.820;2023-09-08T06:33:41;5.43;;;4.15;;
48042;SDS011;33988;47.992;8.820;2023-09-08T06:36:12;5.40;;;4.18;;
48042;SDS011;33988;47.992;8.820;2023-09-08T06:38:39;4.88;;;4.38;;
48042;SDS011;33988;47.992;8.820;2023-09-08T06:41:10;8.50;;;5.07;;
48042;SDS011;33988;47.992;8.820;2023-09-08T06:43:38;6.07;;;5.10;;
48042;SDS011;33988;47.992;8.820;2023-09-08T06:46:05;5.75;;;4.82;;
48042;SDS011;33988;47.992;8.820;2023-09-08T06:48:37;7.97;;;4.53;;
48042;SDS011;33988;47.992;8.820;2023-09-08T06:51:04;5.70;;;4.63;;
48042;SDS011;33988;47.992;8.820;2023-09-08T06:53:31;5.70;;;4.53;;
48042;SDS011;33988;47.992;8.820;2023-09-08T06:56:04;5.30;;;4.60;;
48042;SDS011;33988;47.992;8.820;2023-09-08T06:58:33;4.88;;;4.38;;
48042;SDS011;33988;47.992;8.820;2023-09-08T07:01:03;5.53;;;4.75;;
48042;SDS011;33988;47.992;8.820;2023-09-08T07:03:30;5.65;;;4.57;;
48042;SDS011;33988;47.992;8.820;2023-09-08T07:06:04;5.20;;;4.53;;
48042;SDS011;33988;47.992;8.820;2023-09-08T07:08:31;6.38;;;4.95;;
48042;SDS011;33988;47.992;8.820;2023-09-08T07:10:58;6.07;;;4.95;;
48042;SDS011;33988;47.992;8.820;2023-09-08T07:13:27;7.32;;;5.38;;
48042;SDS011;33988;47.992;8.820;2023-09-08T07:15:54;5.38;;;4.65;;
48042;SDS011;33988;47.992;8.820;2023-09-08T07:18:21;6.15;;;4.78;;
48042;SDS011;33988;47.992;8.820;2023-09-08T07:20:51;6.03;;;4.78;;
48042;SDS011;33988;47.992;8.820;2023-09-08T07:23:18;5.55;;;4.75;;
48042;SDS011;33988;47.992;8.820;2023-09-08T07:25:46;6.20;;;5.07;;
48042;SDS011;33988;47.992;8.820;2023-09-08T07:28:16;7.75;;;5.55;;
48042;SDS011;33988;47.992;8.820;2023-09-08T07:30:45;5.65;;;5.15;;
48042;SDS011;33988;47.992;8.820;2023-09-08T07:33:14;6.03;;;5.38;;
48042;SDS011;33988;47.992;8.820;2023-09-08T07:35:45;7.55;;;5.45;;
48042;SDS011;33988;47.992;8.820;2023-09-08T07:38:12;6.65;;;5.55;;
48042;SDS011;33988;47.992;8.820;2023-09-08T07:40:39;6.90;;;4.95;;
48042;SDS011;33988;47.992;8.820;2023-09-08T07:43:10;10.85;;;5.85;;
48042;SDS011;33988;47.992;8.820;2023-09-08T07:45:39;10.30;;;5.75;;
48042;SDS011;33988;47.992;8.820;2023-09-08T07:48:06;6.18;;;5.25;;
48042;SDS011;33988;47.992;8.820;2023-09-08T07:50:34;5.63;;;4.95;;
48042;SDS011;33988;47.992;8.820;2023-09-08T07:53:00;5.15;;;4.65;;
48042;SDS011;33988;47.992;8.820;2023-09-08T07:55:27;6.32;;;5.00;;
48042;SDS011;33988;47.992;8.820;2023-09-08T07:57:58;5.13;;;4.57;;
48042;SDS011;33988;47.992;8.820;2023-09-08T08:00:25;5.45;;;4.80;;
48042;SDS011;33988;47.992;8.820;2023-09-08T08:02:55;4.70;;;4.20;;
48042;SDS011;33988;47.992;8.820;2023-09-08T08:05:23;7.60;;;4.60;;
48042;SDS011;33988;47.992;8.820;2023-09-08T08:07:51;5.43;;;4.90;;
48042;SDS011;33988;47.992;8.820;2023-09-08T08:10:20;4.90;;;4.20;;
48042;SDS011;33988;47.992;8.820;2023-09-08T08:12:47;4.72;;;4.32;;
48042;SDS011;33988;47.992;8.820;2023-09-08T08:15:14;4.78;;;4.25;;
48042;SDS011;33988;47.992;8.820;2023-09-08T08:17:41;5.15;;;4.65;;
48042;SDS011;33988;47.992;8.820;2023-09-08T08:20:09;5.30;;;4.43;;
48042;SDS011;33988;47.992;8.820;2023-09-08T08:22:44;4.68;;;4.28;;
48042;SDS011;33988;47.992;8.820;2023-09-08T08:25:11;4.70;;;4.25;;
48042;SDS011;33988;47.992;8.820;2023-09-08T08:27:39;6.40;;;4.55;;
48042;SDS011;33988;47.992;8.820;2023-09-08T08:30:07;6.80;;;4.57;;
48042;SDS011;33988;47.992;8.820;2023-09-08T08:32:35;5.82;;;5.28;;
48042;SDS011;33988;47.992;8.820;2023-09-08T08:35:04;7.80;;;4.95;;
48042;SDS011;33988;47.992;8.820;2023-09-08T08:37:31;6.15;;;5.35;;
48042;SDS011;33988;47.992;8.820;2023-09-08T08:39:58;5.88;;;5.32;;
48042;SDS011;33988;47.992;8.820;2023-09-08T08:42:32;6.25;;;4.97;;
48042;SDS011;33988;47.992;8.820;2023-09-08T08:45:02;5.60;;;5.10;;
48042;SDS011;33988;47.992;8.820;2023-09-08T08:47:36;5.88;;;4.93;;
48042;SDS011;33988;47.992;8.820;2023-09-08T08:50:11;5.68;;;5.10;;
48042;SDS011;33988;47.992;8.820;2023-09-08T08:52:40;7.43;;;4.82;;
48042;SDS011;33988;47.992;8.820;2023-09-08T08:55:07;10.23;;;4.95;;
48042;SDS011;33988;47.992;8.820;2023-09-08T08:57:38;6.80;;;5.22;;
48042;SDS011;33988;47.992;8.820;2023-09-08T09:00:06;5.03;;;4.32;;
48042;SDS011;33988;47.992;8.820;2023-09-08T09:02:40;4.65;;;4.25;;
48042;SDS011;33988;47.992;8.820;2023-09-08T09:05:24;5.10;;;4.68;;
48042;SDS011;33988;47.992;8.820;2023-09-08T09:07:51;5.72;;;5.13;;
48042;SDS011;33988;47.992;8.820;2023-09-08T09:10:22;5.32;;;4.82;;
48042;SDS011;33988;47.992;8.820;2023-09-08T09:12:54;4.72;;;4.22;;
48042;SDS011;33988;47.992;8.820;2023-09-08T09:15:28;5.35;;;4.43;;
48042;SDS011;33988;47.992;8.820;2023-09-08T09:18:02;4.57;;;4.18;;
48042;SDS011;33988;47.992;8.820;2023-09-08T09:20:33;6.60;;;5.07;;
48042;SDS011;33988;47.992;8.820;2023-09-08T09:23:02;9.32;;;4.47;;
48042;SDS011;33988;47.992;8.820;2023-09-08T09:25:30;7.22;;;4.53;;
48042;SDS011;33988;47.992;8.820;2023-09-08T09:27:59;5.43;;;4.30;;
48042;SDS011;33988;47.992;8.820;2023-09-08T09:30:45;4.82;;;4.40;;
48042;SDS011;33988;47.992;8.820;2023-09-08T09:33:18;4.28;;;3.97;;
48042;SDS011;33988;47.992;8.820;2023-09-08T09:35:50;4.15;;;3.85;;
48042;SDS011;33988;47.992;8.820;2023-09-08T09:38:19;4.68;;;4.28;;
48042;SDS011;33988;47.992;8.820;2023-09-08T09:40:47;4.30;;;3.88;;
48042;SDS011;33988;47.992;8.820;2023-09-08T09:43:15;4.22;;;3.83;;
48042;SDS011;33988;47.992;8.820;2023-09-08T09:45:47;4.35;;;3.95;;
48042;SDS011;33988;47.992;8.820;2023-09-08T09:48:16;4.25;;;3.72;;
48042;SDS011;33988;47.992;8.820;2023-09-08T09:50:47;4.05;;;3.75;;
48042;SDS011;33988;47.992;8.820;2023-09-08T09:53:16;5.10;;;3.67;;
48042;SDS011;33988;47.992;8.820;2023-09-08T09:55:46;4.40;;;4.00;;
48042;SDS011;33988;47.992;8.820;2023-09-08T09:58:16;5.43;;;4.00;;
48042;SDS011;33988;47.992;8.820;2023-09-08T10:00:45;5.00;;;4.38;;
48042;SDS011;33988;47.992;8.820;2023-09-08T10:03:16;4.28;;;3.88;;
48042;SDS011;33988;47.992;8.820;2023-09-08T10:05:48;5.03;;;4.40;;
48042;SDS011;33988;47.992;8.820;2023-09-08T10:08:15;4.78;;;4.28;;
48042;SDS011;33988;47.992;8.820;2023-09-08T10:10:43;4.35;;;3.95;;
48042;SDS011;33988;47.992;8.820;2023-09-08T10:13:18;4.30;;;3.90;;
48042;SDS011;33988;47.992;8.820;2023-09-08T10:16:00;4.80;;;3.13;;
48042;SDS011;33988;47.992;8.820;2023-09-08T10:18:29;4.28;;;3.88;;
48042;SDS011;33988;47.992;8.820;2023-09-08T10:20:59;4.65;;;4.10;;
48042;SDS011;33988;47.992;8.820;2023-09-08T10:23:33;4.72;;;4.00;;
48042;SDS011;33988;47.992;8.820;2023-09-08T10:26:05;3.92;;;3.63;;
48042;SDS011;33988;47.992;8.820;2023-09-08T10:28:36;3.67;;;3.38;;
48042;SDS011;33988;47.992;8.820;2023-09-08T10:31:06;4.00;;;3.70;;
48042;SDS011;33988;47.992;8.820;2023-09-08T10:33:40;4.05;;;3.67;;
48042;SDS011;33988;47.992;8.820;2023-09-08T10:38:39;3.67;;;3.38;;
48042;SDS011;33988;47.992;8.820;2023-09-08T10:46:26;3.97;;;3.67;;
48042;SDS011;33988;47.992;8.820;2023-09-08T10:49:00;4.45;;;3.50;;
48042;SDS011;33988;47.992;8.820;2023-09-08T10:51:36;3.60;;;3.30;;
48042;SDS011;33988;47.992;8.820;2023-09-08T10:54:04;4.18;;;3.75;;
48042;SDS011;33988;47.992;8.820;2023-09-08T10:56:47;3.97;;;3.60;;
48042;SDS011;33988;47.992;8.820;2023-09-08T10:59:34;4.07;;;3.72;;
48042;SDS011;33988;47.992;8.820;2023-09-08T11:02:07;5.63;;;3.67;;
48042;SDS011;33988;47.992;8.820;2023-09-08T11:05:02;3.75;;;3.42;;
48042;SDS011;33988;47.992;8.820;2023-09-08T11:07:37;4.28;;;3.88;;
48042;SDS011;33988;47.992;8.820;2023-09-08T11:10:07;4.25;;;3.70;;
48042;SDS011;33988;47.992;8.820;2023-09-08T11:12:38;4.22;;;3.83;;
48042;SDS011;33988;47.992;8.820;2023-09-08T11:15:06;4.10;;;3.70;;
48042;SDS011;33988;47.992;8.820;2023-09-08T11:17:35;4.05;;;3.70;;
48042;SDS011;33988;47.992;8.820;2023-09-08T11:20:08;4.50;;;4.10;;
48042;SDS011;33988;47.992;8.820;2023-09-08T11:22:37;4.03;;;3.70;;
48042;SDS011;33988;47.992;8.820;2023-09-08T11:25:09;3.78;;;3.47;;
48042;SDS011;33988;47.992;8.820;2023-09-08T11:27:37;5.25;;;3.85;;
48042;SDS011;33988;47.992;8.820;2023-09-08T11:30:08;4.88;;;4.15;;
48042;SDS011;33988;47.992;8.820;2023-09-08T11:32:35;4.22;;;3.83;;
48042;SDS011;33988;47.992;8.820;2023-09-08T11:35:06;3.90;;;3.60;;
48042;SDS011;33988;47.992;8.820;2023-09-08T11:37:42;4.28;;;3.92;;
48042;SDS011;33988;47.992;8.820;2023-09-08T11:40:12;4.07;;;3.67;;
48042;SDS011;33988;47.992;8.820;2023-09-08T11:42:43;3.92;;;3.42;;
48042;SDS011;33988;47.992;8.820;2023-09-08T11:45:14;5.30;;;3.92;;
48042;SDS011;33988;47.992;8.820;2023-09-08T11:47:49;4.43;;;3.90;;
48042;SDS011;33988;47.992;8.820;2023-09-08T11:50:21;5.75;;;3.78;;
48042;SDS011;33988;47.992;8.820;2023-09-08T11:52:50;4.18;;;3.80;;
48042;SDS011;33988;47.992;8.820;2023-09-08T11:55:20;4.60;;;3.40;;
48042;SDS011;33988;47.992;8.820;2023-09-08T11:57:54;4.38;;;3.97;;
48042;SDS011;33988;47.992;8.820;2023-09-08T12:00:26;5.70;;;3.38;;
48042;SDS011;33988;47.992;8.820;2023-09-08T12:02:54;4.15;;;3.75;;
48042;SDS011;33988;47.992;8.820;2023-09-08T12:05:25;3.83;;;3.42;;
48042;SDS011;33988;47.992;8.820;2023-09-08T12:07:57;6.35;;;3.85;;
48042;SDS011;33988;47.992;8.820;2023-09-08T12:10:24;4.15;;;3.75;;
48042;SDS011;33988;47.992;8.820;2023-09-08T12:12:54;4.10;;;3.70;;
48042;SDS011;33988;47.992;8.820;2023-09-08T12:15:35;3.78;;;3.47;;
48042;SDS011;33988;47.992;8.820;2023-09-08T12:18:07;6.18;;;3.88;;
48042;SDS011;33988;47.992;8.820;2023-09-08T12:20:42;3.65;;;3.35;;
48042;SDS011;33988;47.992;8.820;2023-09-08T12:23:17;4.55;;;4.15;;
48042;SDS011;33988;47.992;8.820;2023-09-08T12:25:50;4.40;;;4.00;;
48042;SDS011;33988;47.992;8.820;2023-09-08T12:28:21;4.05;;;3.65;;
48042;SDS011;33988;47.992;8.820;2023-09-08T12:30:57;4.00;;;3.60;;
48042;SDS011;33988;47.992;8.820;2023-09-08T12:33:25;3.85;;;3.55;;
48042;SDS011;33988;47.992;8.820;2023-09-08T12:35:52;4.20;;;3.35;;
48042;SDS011;33988;47.992;8.820;2023-09-08T12:38:20;4.40;;;4.00;;
48042;SDS011;33988;47.992;8.820;2023-09-08T12:40:49;4.55;;;3.70;;
48042;SDS011;33988;47.992;8.820;2023-09-08T12:43:20;4.32;;;3.50;;
48042;SDS011;33988;47.992;8.820;2023-09-08T12:45:53;5.05;;;3.60;;
48042;SDS011;33988;47.992;8.820;2023-09-08T12:48:22;4.15;;;3.75;;
48042;SDS011;33988;47.992;8.820;2023-09-08T12:50:53;4.07;;;3.67;;
48042;SDS011;33988;47.992;8.820;2023-09-08T12:53:20;5.35;;;4.00;;
48042;SDS011;33988;47.992;8.820;2023-09-08T12:55:49;4.60;;;4.20;;
48042;SDS011;33988;47.992;8.820;2023-09-08T12:58:20;4.20;;;3.80;;
48042;SDS011;33988;47.992;8.820;2023-09-08T13:00:46;3.92;;;3.60;;
48042;SDS011;33988;47.992;8.820;2023-09-08T13:03:16;4.15;;;3.85;;
48042;SDS011;33988;47.992;8.820;2023-09-08T13:05:46;3.95;;;3.63;;
48042;SDS011;33988;47.992;8.820;2023-09-08T13:08:13;3.95;;;3.65;;
48042;SDS011;33988;47.992;8.820;2023-09-08T13:10:42;4.20;;;3.80;;
48042;SDS011;33988;47.992;8.820;2023-09-08T13:13:16;4.05;;;3.65;;
48042;SDS011;33988;47.992;8.820;2023-09-08T13:15:45;3.92;;;3.47;;
48042;SDS011;33988;47.992;8.820;2023-09-08T13:18:15;4.40;;;4.00;;
48042;SDS011;33988;47.992;8.820;2023-09-08T13:20:45;4.07;;;3.78;;
48042;SDS011;33988;47.992;8.820;2023-09-08T13:23:12;3.65;;;3.35;;
48042;SDS011;33988;47.992;8.820;2023-09-08T13:25:39;4.03;;;3.72;;
48042;SDS011;33988;47.992;8.820;2023-09-08T13:28:08;4.30;;;3.90;;
48042;SDS011;33988;47.992;8.820;2023-09-08T13:30:37;3.67;;;3.38;;
48042;SDS011;33988;47.992;8.820;2023-09-08T13:33:04;3.72;;;3.42;;
48042;SDS011;33988;47.992;8.820;2023-09-08T13:35:31;4.18;;;3.78;;
48042;SDS011;33988;47.992;8.820;2023-09-08T13:37:58;4.10;;;3.42;;
48042;SDS011;33988;47.992;8.820;2023-09-08T13:43:01;5.28;;;3.28;;
48042;SDS011;33988;47.992;8.820;2023-09-08T13:45:30;3.85;;;3.47;;
48042;SDS011;33988;47.992;8.820;2023-09-08T13:47:57;3.70;;;3.40;;
48042;SDS011;33988;47.992;8.820;2023-09-08T13:50:25;3.95;;;3.55;;
48042;SDS011;33988;47.992;8.820;2023-09-08T13:52:56;3.80;;;3.47;;
48042;SDS011;33988;47.992;8.820;2023-09-08T13:55:27;4.53;;;4.13;;
48042;SDS011;33988;47.992;8.820;2023-09-08T13:57:57;5.97;;;3.83;;
48042;SDS011;33988;47.992;8.820;2023-09-08T14:02:57;3.80;;;3.38;;
48042;SDS011;33988;47.992;8.820;2023-09-08T14:05:32;3.80;;;3.50;;
48042;SDS011;33988;47.992;8.820;2023-09-08T14:10:40;11.77;;;10.02;;
48042;SDS011;33988;47.992;8.820;2023-09-08T14:13:25;6.55;;;5.95;;
48042;SDS011;33988;47.992;8.820;2023-09-08T14:15:53;4.85;;;4.28;;
48042;SDS011;33988;47.992;8.820;2023-09-08T14:18:20;4.68;;;4.28;;
48042;SDS011;33988;47.992;8.820;2023-09-08T14:20:53;4.00;;;3.65;;
48042;SDS011;33988;47.992;8.820;2023-09-08T14:23:20;4.22;;;3.83;;
48042;SDS011;33988;47.992;8.820;2023-09-08T14:25:49;4.30;;;3.90;;
48042;SDS011;33988;47.992;8.820;2023-09-08T14:28:16;4.00;;;3.58;;
48042;SDS011;33988;47.992;8.820;2023-09-08T14:30:48;3.67;;;3.38;;
48042;SDS011;33988;47.992;8.820;2023-09-08T14:33:17;4.20;;;3.75;;
48042;SDS011;33988;47.992;8.820;2023-09-08T14:35:44;4.22;;;3.60;;
48042;SDS011;33988;47.992;8.820;2023-09-08T14:38:12;5.57;;;3.90;;
48042;SDS011;33988;47.992;8.820;2023-09-08T14:40:43;4.40;;;4.00;;
48042;SDS011;33988;47.992;8.820;2023-09-08T14:43:13;5.32;;;4.32;;
48042;SDS011;33988;47.992;8.820;2023-09-08T14:45:42;4.10;;;3.80;;
48042;SDS011;33988;47.992;8.820;2023-09-08T14:48:09;6.07;;;4.07;;
48042;SDS011;33988;47.992;8.820;2023-09-08T14:50:36;7.82;;;4.43;;
48042;SDS011;33988;47.992;8.820;2023-09-08T14:53:03;5.57;;;3.63;;
48042;SDS011;33988;47.992;8.820;2023-09-08T14:55:34;4.47;;;3.80;;
48042;SDS011;33988;47.992;8.820;2023-09-08T14:58:01;4.30;;;3.90;;
48042;SDS011;33988;47.992;8.820;2023-09-08T15:00:28;4.18;;;3.78;;
48042;SDS011;33988;47.992;8.820;2023-09-08T15:02:56;4.25;;;3.85;;
48042;SDS011;33988;47.992;8.820;2023-09-08T15:05:25;4.43;;;4.03;;
48042;SDS011;33988;47.992;8.820;2023-09-08T15:07:52;13.25;;;4.22;;
48042;SDS011;33988;47.992;8.820;2023-09-08T15:10:19;4.55;;;4.15;;
48042;SDS011;33988;47.992;8.820;2023-09-08T15:12:46;4.35;;;3.95;;
48042;SDS011;33988;47.992;8.820;2023-09-08T15:15:15;7.13;;;4.20;;
48042;SDS011;33988;47.992;8.820;2023-09-08T15:17:55;4.47;;;3.95;;
48042;SDS011;33988;47.992;8.820;2023-09-08T15:20:22;4.10;;;3.70;;
48042;SDS011;33988;47.992;8.820;2023-09-08T15:22:51;7.50;;;4.32;;